sensor_id;sensor_type;location;lat;lon;timestamp;pressure;altitude;pressure_sealevel;temperature;humidity
81897;BME280;71360;43.506;1.500;2023-10-09T00:00:15;99594.44;;;19.92;37.90
81897;BME280;71360;43.506;1.500;2023-10-09T00:03:01;99605.56;;;19.89;38.01
81897;BME280;71360;43.506;1.500;2023-10-09T00:05:30;99597.44;;;19.89;38.00
81897;BME280;71360;43.506;1.500;2023-10-09T00:08:13;99590.53;;;19.85;38.08
81897;BME280;71360;43.506;1.500;2023-10-09T00:10:44;99591.66;;;19.82;38.63
81897;BME280;71360;43.506;1.500;2023-10-09T00:13:14;99597.44;;;19.78;38.65
81897;BME280;71360;43.506;1.500;2023-10-09T00:15:41;99599.53;;;19.74;38.77
81897;BME280;71360;43.506;1.500;2023-10-09T00:18:07;99604.34;;;19.70;39.46
81897;BME280;71360;43.506;1.500;2023-10-09T00:20:38;99605.59;;;19.66;39.55
81897;BME280;71360;43.506;1.500;2023-10-09T00:23:08;99597.97;;;19.60;39.85
81897;BME280;71360;43.506;1.500;2023-10-09T00:25:51;99601.06;;;19.55;40.18
81897;BME280;71360;43.506;1.500;2023-10-09T00:28:37;99595.88;;;19.52;40.54
81897;BME280;71360;43.506;1.500;2023-10-09T00:31:06;99600.72;;;19.49;41.10
81897;BME280;71360;43.506;1.500;2023-10-09T00:33:33;99593.56;;;19.48;40.89
81897;BME280;71360;43.506;1.500;2023-10-09T00:36:06;99591.09;;;19.45;41.18
81897;BME280;71360;43.506;1.500;2023-10-09T00:38:40;99590.38;;;19.43;41.63
81897;BME280;71360;43.506;1.500;2023-10-09T00:41:09;99592.34;;;19.40;41.89
81897;BME280;71360;43.506;1.500;2023-10-09T00:43:39;99597.88;;;19.39;42.57
81897;BME280;71360;43.506;1.500;2023-10-09T00:46:08;99597.28;;;19.35;42.55
81897;BME280;71360;43.506;1.500;2023-10-09T00:48:56;99593.09;;;19.31;42.99
81897;BME280;71360;43.506;1.500;2023-10-09T00:51:24;99591.63;;;19.27;43.37
81897;BME280;71360;43.506;1.500;2023-10-09T00:53:57;99593.84;;;19.22;43.08
81897;BME280;71360;43.506;1.500;2023-10-09T00:56:24;99584.38;;;19.16;42.79
81897;BME280;71360;43.506;1.500;2023-10-09T00:58:59;99589.56;;;19.08;42.65
81897;BME280;71360;43.506;1.500;2023-10-09T01:01:38;99589.31;;;19.00;42.40
81897;BME280;71360;43.506;1.500;2023-10-09T01:04:06;99586.56;;;18.88;42.50
81897;BME280;71360;43.506;1.500;2023-10-09T01:06:41;99585.66;;;18.77;42.48
81897;BME280;71360;43.506;1.500;2023-10-09T01:09:13;99598.47;;;18.63;42.65
81897;BME280;71360;43.506;1.500;2023-10-09T01:11:40;99595.50;;;18.55;42.32
81897;BME280;71360;43.506;1.500;2023-10-09T01:14:24;99591.28;;;18.39;42.73
81897;BME280;71360;43.506;1.500;2023-10-09T01:16:50;99595.91;;;18.26;42.72
81897;BME280;71360;43.506;1.500;2023-10-09T01:19:19;99590.59;;;18.13;42.72
81897;BME280;71360;43.506;1.500;2023-10-09T01:21:46;99597.06;;;17.99;43.26
81897;BME280;71360;43.506;1.500;2023-10-09T01:24:12;99596.22;;;17.86;43.38
81897;BME280;71360;43.506;1.500;2023-10-09T01:26:39;99599.72;;;17.75;43.48
81897;BME280;71360;43.506;1.500;2023-10-09T01:29:06;99591.44;;;17.65;43.72
81897;BME280;71360;43.506;1.500;2023-10-09T01:31:45;99593.94;;;17.55;43.65
81897;BME280;71360;43.506;1.500;2023-10-09T01:34:33;99593.16;;;17.42;44.06
81897;BME280;71360;43.506;1.500;2023-10-09T01:37:20;99590.16;;;17.34;44.04
81897;BME280;71360;43.506;1.500;2023-10-09T01:39:58;99592.63;;;17.24;44.61
81897;BME280;71360;43.506;1.500;2023-10-09T01:42:26;99602.81;;;17.20;44.79
81897;BME280;71360;43.506;1.500;2023-10-09T01:45:11;99592.69;;;17.11;44.57
81897;BME280;71360;43.506;1.500;2023-10-09T01:47:37;99588.59;;;17.06;44.57
81897;BME280;71360;43.506;1.500;2023-10-09T01:50:07;99594.41;;;16.99;44.98
81897;BME280;71360;43.506;1.500;2023-10-09T01:52:44;99585.78;;;16.94;44.87
81897;BME280;71360;43.506;1.500;2023-10-09T01:55:10;99588.91;;;16.88;44.90
81897;BME280;71360;43.506;1.500;2023-10-09T01:57:40;99591.06;;;16.83;45.52
81897;BME280;71360;43.506;1.500;2023-10-09T02:00:10;99596.78;;;16.78;45.07
81897;BME280;71360;43.506;1.500;2023-10-09T02:02:41;99588.16;;;16.73;45.94
81897;BME280;71360;43.506;1.500;2023-10-09T02:05:10;99581.34;;;16.67;45.75
81897;BME280;71360;43.506;1.500;2023-10-09T02:07:36;99583.50;;;16.62;46.52
81897;BME280;71360;43.506;1.500;2023-10-09T02:10:23;99584.03;;;16.54;46.57
81897;BME280;71360;43.506;1.500;2023-10-09T02:12:59;99578.97;;;16.50;46.82
81897;BME280;71360;43.506;1.500;2023-10-09T02:15:29;99589.00;;;16.48;46.88
81897;BME280;71360;43.506;1.500;2023-10-09T02:18:12;99588.34;;;16.44;47.08
81897;BME280;71360;43.506;1.500;2023-10-09T02:20:45;99591.34;;;16.40;47.15
81897;BME280;71360;43.506;1.500;2023-10-09T02:23:20;99586.94;;;16.38;47.12
81897;BME280;71360;43.506;1.500;2023-10-09T02:25:50;99588.09;;;16.34;47.77
81897;BME280;71360;43.506;1.500;2023-10-09T02:28:18;99590.91;;;16.33;47.87
81897;BME280;71360;43.506;1.500;2023-10-09T02:30:44;99594.69;;;16.30;48.20
81897;BME280;71360;43.506;1.500;2023-10-09T02:33:16;99597.50;;;16.29;48.07
81897;BME280;71360;43.506;1.500;2023-10-09T02:35:55;99593.06;;;16.28;48.34
81897;BME280;71360;43.506;1.500;2023-10-09T02:38:25;99590.47;;;16.26;48.47
81897;BME280;71360;43.506;1.500;2023-10-09T02:40:51;99587.88;;;16.25;48.11
81897;BME280;71360;43.506;1.500;2023-10-09T02:43:33;99595.34;;;16.21;48.05
81897;BME280;71360;43.506;1.500;2023-10-09T02:46:17;99598.22;;;16.18;48.08
81897;BME280;71360;43.506;1.500;2023-10-09T02:48:44;99594.78;;;16.16;47.64
81897;BME280;71360;43.506;1.500;2023-10-09T02:51:26;99601.47;;;16.10;47.71
81897;BME280;71360;43.506;1.500;2023-10-09T02:54:02;99594.56;;;16.06;48.50
81897;BME280;71360;43.506;1.500;2023-10-09T02:56:51;99601.19;;;16.00;48.41
81897;BME280;71360;43.506;1.500;2023-10-09T02:59:41;99607.13;;;15.93;48.44
81897;BME280;71360;43.506;1.500;2023-10-09T03:02:07;99610.13;;;15.88;49.01
81897;BME280;71360;43.506;1.500;2023-10-09T03:04:33;99607.75;;;15.83;49.31
81897;BME280;71360;43.506;1.500;2023-10-09T03:06:59;99615.16;;;15.80;48.73
81897;BME280;71360;43.506;1.500;2023-10-09T03:09:26;99610.03;;;15.75;48.91
81897;BME280;71360;43.506;1.500;2023-10-09T03:12:00;99614.00;;;15.69;49.15
81897;BME280;71360;43.506;1.500;2023-10-09T03:14:30;99612.56;;;15.64;49.37
81897;BME280;71360;43.506;1.500;2023-10-09T03:16:56;99605.75;;;15.58;49.37
81897;BME280;71360;43.506;1.500;2023-10-09T03:19:23;99615.00;;;15.54;49.98
81897;BME280;71360;43.506;1.500;2023-10-09T03:21:50;99610.88;;;15.48;50.01
81897;BME280;71360;43.506;1.500;2023-10-09T03:24:16;99620.03;;;15.46;49.98
81897;BME280;71360;43.506;1.500;2023-10-09T03:26:41;99623.88;;;15.42;49.88
81897;BME280;71360;43.506;1.500;2023-10-09T03:29:10;99621.38;;;15.39;50.59
81897;BME280;71360;43.506;1.500;2023-10-09T03:31:36;99608.13;;;15.35;50.46
81897;BME280;71360;43.506;1.500;2023-10-09T03:34:03;99627.16;;;15.32;50.56
81897;BME280;71360;43.506;1.500;2023-10-09T03:36:28;99616.59;;;15.29;51.10
81897;BME280;71360;43.506;1.500;2023-10-09T03:38:56;99613.03;;;15.29;51.31
81897;BME280;71360;43.506;1.500;2023-10-09T03:41:24;99607.56;;;15.30;52.04
81897;BME280;71360;43.506;1.500;2023-10-09T03:43:52;99614.56;;;15.33;52.68
81897;BME280;71360;43.506;1.500;2023-10-09T03:46:20;99617.91;;;15.36;52.39
81897;BME280;71360;43.506;1.500;2023-10-09T03:48:50;99622.13;;;15.41;52.21
81897;BME280;71360;43.506;1.500;2023-10-09T03:51:17;99622.06;;;15.42;52.11
81897;BME280;71360;43.506;1.500;2023-10-09T03:53:47;99625.63;;;15.43;51.96
81897;BME280;71360;43.506;1.500;2023-10-09T03:56:14;99631.75;;;15.45;52.32
81897;BME280;71360;43.506;1.500;2023-10-09T03:58:47;99632.53;;;15.47;52.20
81897;BME280;71360;43.506;1.500;2023-10-09T04:01:21;99626.19;;;15.48;52.59
81897;BME280;71360;43.506;1.500;2023-10-09T04:03:47;99625.97;;;15.51;52.15
81897;BME280;71360;43.506;1.500;2023-10-09T04:06:12;99624.91;;;15.53;52.55
81897;BME280;71360;43.506;1.500;2023-10-09T04:08:38;99623.84;;;15.56;52.56
81897;BME280;71360;43.506;1.500;2023-10-09T04:11:12;99629.03;;;15.59;52.46
81897;BME280;71360;43.506;1.500;2023-10-09T04:13:45;99628.72;;;15.64;52.94
81897;BME280;71360;43.506;1.500;2023-10-09T04:16:15;99634.78;;;15.67;52.70
81897;BME280;71360;43.506;1.500;2023-10-09T04:18:56;99632.78;;;15.71;52.94
81897;BME280;71360;43.506;1.500;2023-10-09T04:21:23;99632.44;;;15.76;52.58
81897;BME280;71360;43.506;1.500;2023-10-09T04:24:05;99634.09;;;15.78;52.20
81897;BME280;71360;43.506;1.500;2023-10-09T04:26:49;99635.81;;;15.79;52.43
81897;BME280;71360;43.506;1.500;2023-10-09T04:29:22;99625.94;;;15.80;52.73
81897;BME280;71360;43.506;1.500;2023-10-09T04:31:57;99625.94;;;15.80;53.06
81897;BME280;71360;43.506;1.500;2023-10-09T04:34:26;99626.81;;;15.80;52.43
81897;BME280;71360;43.506;1.500;2023-10-09T04:37:00;99625.94;;;15.80;52.56
81897;BME280;71360;43.506;1.500;2023-10-09T04:39:29;99623.13;;;15.81;53.08
81897;BME280;71360;43.506;1.500;2023-10-09T04:41:56;99624.88;;;15.82;52.71
81897;BME280;71360;43.506;1.500;2023-10-09T04:44:42;99626.72;;;15.82;52.78
81897;BME280;71360;43.506;1.500;2023-10-09T04:47:33;99626.72;;;15.82;52.93
81897;BME280;71360;43.506;1.500;2023-10-09T04:50:03;99624.00;;;15.82;52.72
81897;BME280;71360;43.506;1.500;2023-10-09T04:53:03;99628.63;;;15.80;52.77
81897;BME280;71360;43.506;1.500;2023-10-09T04:55:44;99620.59;;;15.78;52.79
81897;BME280;71360;43.506;1.500;2023-10-09T04:58:25;99621.56;;;15.77;53.17
81897;BME280;71360;43.506;1.500;2023-10-09T05:00:54;99631.50;;;15.77;53.15
81897;BME280;71360;43.506;1.500;2023-10-09T05:03:23;99627.84;;;15.78;53.33
81897;BME280;71360;43.506;1.500;2023-10-09T05:05:55;99630.53;;;15.78;53.23
81897;BME280;71360;43.506;1.500;2023-10-09T05:08:25;99629.66;;;15.77;53.27
81897;BME280;71360;43.506;1.500;2023-10-09T05:11:02;99635.94;;;15.78;53.82
81897;BME280;71360;43.506;1.500;2023-10-09T05:13:29;99632.34;;;15.77;53.44
81897;BME280;71360;43.506;1.500;2023-10-09T05:16:08;99636.03;;;15.76;53.22
81897;BME280;71360;43.506;1.500;2023-10-09T05:18:44;99638.81;;;15.75;53.38
81897;BME280;71360;43.506;1.500;2023-10-09T05:21:13;99636.22;;;15.73;53.32
81897;BME280;71360;43.506;1.500;2023-10-09T05:23:39;99636.31;;;15.72;53.42
81897;BME280;71360;43.506;1.500;2023-10-09T05:26:28;99631.03;;;15.70;53.77
81897;BME280;71360;43.506;1.500;2023-10-09T05:29:26;99640.19;;;15.67;53.87
81897;BME280;71360;43.506;1.500;2023-10-09T05:31:57;99640.38;;;15.64;54.18
81897;BME280;71360;43.506;1.500;2023-10-09T05:34:38;99637.91;;;15.61;53.90
81897;BME280;71360;43.506;1.500;2023-10-09T05:37:23;99646.06;;;15.60;53.92
81897;BME280;71360;43.506;1.500;2023-10-09T05:39:55;99644.25;;;15.60;54.60
81897;BME280;71360;43.506;1.500;2023-10-09T05:42:34;99651.53;;;15.58;55.00
81897;BME280;71360;43.506;1.500;2023-10-09T05:45:06;99651.44;;;15.60;55.23
81897;BME280;71360;43.506;1.500;2023-10-09T05:47:44;99651.38;;;15.61;55.30
81897;BME280;71360;43.506;1.500;2023-10-09T05:50:20;99643.94;;;15.65;56.07
81897;BME280;71360;43.506;1.500;2023-10-09T05:52:49;99655.59;;;15.65;56.17
81897;BME280;71360;43.506;1.500;2023-10-09T05:55:20;99663.56;;;15.67;55.99
81897;BME280;71360;43.506;1.500;2023-10-09T05:58:04;99663.69;;;15.65;56.38
81897;BME280;71360;43.506;1.500;2023-10-09T06:00:48;99669.13;;;15.64;56.32
81897;BME280;71360;43.506;1.500;2023-10-09T06:03:32;99670.22;;;15.61;56.19
81897;BME280;71360;43.506;1.500;2023-10-09T06:06:35;99671.47;;;15.56;55.57
81897;BME280;71360;43.506;1.500;2023-10-09T06:09:12;99680.53;;;15.55;55.47
81897;BME280;71360;43.506;1.500;2023-10-09T06:11:48;99684.28;;;15.52;55.69
81897;BME280;71360;43.506;1.500;2023-10-09T06:14:22;99682.75;;;15.48;55.62
81897;BME280;71360;43.506;1.500;2023-10-09T06:17:08;99680.44;;;15.42;55.30
81897;BME280;71360;43.506;1.500;2023-10-09T06:19:36;99687.75;;;15.40;56.10
81897;BME280;71360;43.506;1.500;2023-10-09T06:22:14;99687.19;;;15.34;56.23
81897;BME280;71360;43.506;1.500;2023-10-09T06:24:58;99688.44;;;15.29;56.58
81897;BME280;71360;43.506;1.500;2023-10-09T06:27:34;99688.53;;;15.27;56.31
81897;BME280;71360;43.506;1.500;2023-10-09T06:30:00;99682.38;;;15.25;56.64
81897;BME280;71360;43.506;1.500;2023-10-09T06:32:41;99689.59;;;15.25;55.70
81897;BME280;71360;43.506;1.500;2023-10-09T06:35:15;99688.72;;;15.24;56.14
81897;BME280;71360;43.506;1.500;2023-10-09T06:37:44;99686.81;;;15.26;56.13
81897;BME280;71360;43.506;1.500;2023-10-09T06:40:33;99691.41;;;15.24;56.90
81897;BME280;71360;43.506;1.500;2023-10-09T06:43:23;99688.91;;;15.21;56.64
81897;BME280;71360;43.506;1.500;2023-10-09T06:45:52;99687.19;;;15.20;57.37
81897;BME280;71360;43.506;1.500;2023-10-09T06:48:45;99692.41;;;15.23;58.11
81897;BME280;71360;43.506;1.500;2023-10-09T06:51:12;99692.00;;;15.29;57.48
81897;BME280;71360;43.506;1.500;2023-10-09T06:53:51;99691.63;;;15.35;57.45
81897;BME280;71360;43.506;1.500;2023-10-09T06:56:23;99699.19;;;15.43;57.57
81897;BME280;71360;43.506;1.500;2023-10-09T06:59:09;99707.66;;;15.51;57.49
81897;BME280;71360;43.506;1.500;2023-10-09T07:01:48;99703.41;;;15.62;57.81
81897;BME280;71360;43.506;1.500;2023-10-09T07:04:31;99710.13;;;15.69;57.00
81897;BME280;71360;43.506;1.500;2023-10-09T07:06:57;99706.09;;;15.76;57.01
81897;BME280;71360;43.506;1.500;2023-10-09T07:09:24;99706.59;;;15.83;57.03
81897;BME280;71360;43.506;1.500;2023-10-09T07:12:08;99699.63;;;15.93;56.69
81897;BME280;71360;43.506;1.500;2023-10-09T07:14:59;99705.38;;;16.01;56.59
81897;BME280;71360;43.506;1.500;2023-10-09T07:17:27;99712.88;;;16.11;56.84
81897;BME280;71360;43.506;1.500;2023-10-09T07:20:00;99711.31;;;16.21;57.12
81897;BME280;71360;43.506;1.500;2023-10-09T07:22:39;99719.63;;;16.31;56.49
81897;BME280;71360;43.506;1.500;2023-10-09T07:25:17;99712.63;;;16.41;56.63
81897;BME280;71360;43.506;1.500;2023-10-09T07:28:02;99717.97;;;16.56;56.73
81897;BME280;71360;43.506;1.500;2023-10-09T07:30:28;99720.63;;;16.70;56.92
81897;BME280;71360;43.506;1.500;2023-10-09T07:33:00;99717.81;;;16.84;56.88
81897;BME280;71360;43.506;1.500;2023-10-09T07:35:42;99725.63;;;17.02;56.77
81897;BME280;71360;43.506;1.500;2023-10-09T07:38:09;99733.53;;;17.18;56.39
81897;BME280;71360;43.506;1.500;2023-10-09T07:40:41;99724.47;;;17.32;56.28
81897;BME280;71360;43.506;1.500;2023-10-09T07:43:45;99728.75;;;17.47;55.28
81897;BME280;71360;43.506;1.500;2023-10-09T07:46:17;99731.22;;;17.63;55.75
81897;BME280;71360;43.506;1.500;2023-10-09T07:48:59;99725.47;;;17.81;55.14
81897;BME280;71360;43.506;1.500;2023-10-09T07:51:35;99731.50;;;17.97;55.07
81897;BME280;71360;43.506;1.500;2023-10-09T07:54:00;99730.34;;;18.13;55.35
81897;BME280;71360;43.506;1.500;2023-10-09T07:56:40;99733.44;;;18.32;54.90
81897;BME280;71360;43.506;1.500;2023-10-09T07:59:15;99733.63;;;18.53;54.45
81897;BME280;71360;43.506;1.500;2023-10-09T08:01:45;99742.22;;;18.71;54.30
81897;BME280;71360;43.506;1.500;2023-10-09T08:04:25;99740.34;;;18.96;53.72
81897;BME280;71360;43.506;1.500;2023-10-09T08:07:10;99747.31;;;19.23;53.26
81897;BME280;71360;43.506;1.500;2023-10-09T08:09:47;99739.19;;;19.46;52.95
81897;BME280;71360;43.506;1.500;2023-10-09T08:12:17;99745.84;;;19.64;52.11
81897;BME280;71360;43.506;1.500;2023-10-09T08:15:06;99744.88;;;19.77;51.50
81897;BME280;71360;43.506;1.500;2023-10-09T08:17:57;99749.72;;;19.84;51.23
81897;BME280;71360;43.506;1.500;2023-10-09T08:20:29;99747.38;;;19.91;50.95
81897;BME280;71360;43.506;1.500;2023-10-09T08:23:24;99742.53;;;19.95;51.12
81897;BME280;71360;43.506;1.500;2023-10-09T08:26:04;99744.88;;;19.99;50.72
81897;BME280;71360;43.506;1.500;2023-10-09T08:28:44;99745.13;;;20.07;50.54
81897;BME280;71360;43.506;1.500;2023-10-09T08:31:16;99747.78;;;20.19;50.25
81897;BME280;71360;43.506;1.500;2023-10-09T08:34:02;99753.44;;;20.27;50.09
81897;BME280;71360;43.506;1.500;2023-10-09T08:36:29;99754.66;;;20.34;50.06
81897;BME280;71360;43.506;1.500;2023-10-09T08:39:02;99757.59;;;20.42;49.76
81897;BME280;71360;43.506;1.500;2023-10-09T08:41:45;99753.97;;;20.53;49.64
81897;BME280;71360;43.506;1.500;2023-10-09T08:44:12;99750.97;;;20.68;49.59
81897;BME280;71360;43.506;1.500;2023-10-09T08:46:40;99746.97;;;20.83;49.32
81897;BME280;71360;43.506;1.500;2023-10-09T08:49:09;99754.41;;;21.02;49.28
81897;BME280;71360;43.506;1.500;2023-10-09T08:51:36;99751.06;;;21.20;48.96
81897;BME280;71360;43.506;1.500;2023-10-09T08:54:03;99745.16;;;21.36;48.84
81897;BME280;71360;43.506;1.500;2023-10-09T08:56:38;99744.44;;;21.55;48.67
81897;BME280;71360;43.506;1.500;2023-10-09T08:59:15;99745.78;;;21.70;48.27
81897;BME280;71360;43.506;1.500;2023-10-09T09:01:44;99745.28;;;21.86;47.50
81897;BME280;71360;43.506;1.500;2023-10-09T09:04:51;99740.47;;;22.00;47.64
81897;BME280;71360;43.506;1.500;2023-10-09T09:07:26;99740.06;;;22.14;47.42
81897;BME280;71360;43.506;1.500;2023-10-09T09:10:20;99749.09;;;22.24;46.94
81897;BME280;71360;43.506;1.500;2023-10-09T09:13:02;99744.16;;;22.39;46.59
81897;BME280;71360;43.506;1.500;2023-10-09T09:15:29;99739.28;;;22.53;45.91
81897;BME280;71360;43.506;1.500;2023-10-09T09:18:08;99741.00;;;22.64;45.86
81897;BME280;71360;43.506;1.500;2023-10-09T09:20:37;99741.75;;;22.75;45.38
81897;BME280;71360;43.506;1.500;2023-10-09T09:23:09;99743.31;;;22.88;45.78
81897;BME280;71360;43.506;1.500;2023-10-09T09:25:47;99744.44;;;22.95;44.70
81897;BME280;71360;43.506;1.500;2023-10-09T09:28:22;99744.03;;;23.00;45.03
81897;BME280;71360;43.506;1.500;2023-10-09T09:31:07;99736.53;;;23.02;44.55
81897;BME280;71360;43.506;1.500;2023-10-09T09:33:38;99732.09;;;23.10;44.39
81897;BME280;71360;43.506;1.500;2023-10-09T09:36:23;99738.72;;;23.18;44.40
81897;BME280;71360;43.506;1.500;2023-10-09T09:38:54;99737.25;;;23.23;43.60
81897;BME280;71360;43.506;1.500;2023-10-09T09:41:26;99737.53;;;23.30;44.11
81897;BME280;71360;43.506;1.500;2023-10-09T09:43:56;99739.53;;;23.38;43.41
81897;BME280;71360;43.506;1.500;2023-10-09T09:46:32;99737.75;;;23.47;43.56
81897;BME280;71360;43.506;1.500;2023-10-09T09:49:02;99737.56;;;23.58;43.29
81897;BME280;71360;43.506;1.500;2023-10-09T09:51:32;99728.78;;;23.64;43.20
81897;BME280;71360;43.506;1.500;2023-10-09T09:53:58;99734.19;;;23.74;43.06
81897;BME280;71360;43.506;1.500;2023-10-09T09:56:25;99732.16;;;23.86;42.39
81897;BME280;71360;43.506;1.500;2023-10-09T09:58:51;99733.69;;;23.98;42.51
81897;BME280;71360;43.506;1.500;2023-10-09T10:01:25;99734.88;;;24.14;42.22
81897;BME280;71360;43.506;1.500;2023-10-09T10:03:58;99735.38;;;24.27;42.24
81897;BME280;71360;43.506;1.500;2023-10-09T10:09:46;99723.53;;;24.54;41.15
81897;BME280;71360;43.506;1.500;2023-10-09T10:12:15;99723.88;;;24.69;40.84
81897;BME280;71360;43.506;1.500;2023-10-09T10:14:59;99721.59;;;24.83;40.71
81897;BME280;71360;43.506;1.500;2023-10-09T10:20:24;99715.31;;;25.08;39.80
81897;BME280;71360;43.506;1.500;2023-10-09T10:22:51;99708.53;;;25.21;39.55
81897;BME280;71360;43.506;1.500;2023-10-09T10:25:37;99701.81;;;25.33;40.15
81897;BME280;71360;43.506;1.500;2023-10-09T10:28:22;99704.13;;;25.46;39.24
81897;BME280;71360;43.506;1.500;2023-10-09T10:30:57;99697.19;;;25.60;39.12
81897;BME280;71360;43.506;1.500;2023-10-09T10:33:27;99687.66;;;25.72;38.83
81897;BME280;71360;43.506;1.500;2023-10-09T10:36:18;99684.44;;;25.85;38.70
81897;BME280;71360;43.506;1.500;2023-10-09T10:38:59;99688.75;;;25.96;37.99
81897;BME280;71360;43.506;1.500;2023-10-09T10:41:30;99693.25;;;26.05;37.70
81897;BME280;71360;43.506;1.500;2023-10-09T10:44:06;99686.78;;;26.15;37.75
81897;BME280;71360;43.506;1.500;2023-10-09T10:46:59;99678.59;;;26.23;37.30
81897;BME280;71360;43.506;1.500;2023-10-09T10:52:56;99690.75;;;26.45;37.04
81897;BME280;71360;43.506;1.500;2023-10-09T10:55:39;99691.31;;;26.57;37.36
81897;BME280;71360;43.506;1.500;2023-10-09T10:58:17;99686.34;;;26.69;37.25
81897;BME280;71360;43.506;1.500;2023-10-09T11:00:57;99676.59;;;26.83;36.98
81897;BME280;71360;43.506;1.500;2023-10-09T11:03:24;99684.47;;;26.94;36.77
81897;BME280;71360;43.506;1.500;2023-10-09T11:06:27;99667.66;;;27.05;36.32
81897;BME280;71360;43.506;1.500;2023-10-09T11:09:08;99676.22;;;27.19;36.08
81897;BME280;71360;43.506;1.500;2023-10-09T11:11:54;99668.28;;;27.32;36.01
81897;BME280;71360;43.506;1.500;2023-10-09T11:14:46;99661.44;;;27.44;35.52
81897;BME280;71360;43.506;1.500;2023-10-09T11:17:31;99659.81;;;27.58;35.70
81897;BME280;71360;43.506;1.500;2023-10-09T11:19:58;99658.59;;;27.69;35.29
81897;BME280;71360;43.506;1.500;2023-10-09T11:22:23;99664.50;;;27.81;34.79
81897;BME280;71360;43.506;1.500;2023-10-09T11:24:56;99654.16;;;27.91;34.49
81897;BME280;71360;43.506;1.500;2023-10-09T11:27:37;99651.22;;;28.01;34.20
81897;BME280;71360;43.506;1.500;2023-10-09T11:30:05;99644.66;;;28.10;34.36
81897;BME280;71360;43.506;1.500;2023-10-09T11:32:36;99648.03;;;28.21;34.25
81897;BME280;71360;43.506;1.500;2023-10-09T11:35:14;99639.91;;;28.27;34.04
81897;BME280;71360;43.506;1.500;2023-10-09T11:37:56;99633.97;;;28.39;33.72
81897;BME280;71360;43.506;1.500;2023-10-09T11:40:29;99634.75;;;28.47;33.00
81897;BME280;71360;43.506;1.500;2023-10-09T11:43:02;99626.44;;;28.56;33.10
81897;BME280;71360;43.506;1.500;2023-10-09T11:45:29;99628.09;;;28.65;33.00
81897;BME280;71360;43.506;1.500;2023-10-09T11:47:57;99620.47;;;28.75;33.24
81897;BME280;71360;43.506;1.500;2023-10-09T11:50:46;99611.09;;;28.85;32.36
81897;BME280;71360;43.506;1.500;2023-10-09T11:53:14;99608.59;;;28.90;32.11
81897;BME280;71360;43.506;1.500;2023-10-09T11:55:46;99601.34;;;28.97;32.28
81897;BME280;71360;43.506;1.500;2023-10-09T11:58:17;99607.38;;;29.07;32.56
81897;BME280;71360;43.506;1.500;2023-10-09T12:03:30;99591.56;;;29.24;32.10
81897;BME280;71360;43.506;1.500;2023-10-09T12:05:56;99593.00;;;29.35;31.39
81897;BME280;71360;43.506;1.500;2023-10-09T12:08:25;99585.97;;;29.47;31.38
81897;BME280;71360;43.506;1.500;2023-10-09T12:10:54;99575.69;;;29.56;31.35
81897;BME280;71360;43.506;1.500;2023-10-09T12:13:24;99570.94;;;29.65;31.08
81897;BME280;71360;43.506;1.500;2023-10-09T12:15:51;99575.28;;;29.74;31.21
81897;BME280;71360;43.506;1.500;2023-10-09T12:18:20;99571.19;;;29.85;31.06
81897;BME280;71360;43.506;1.500;2023-10-09T12:20:46;99571.06;;;29.93;30.37
81897;BME280;71360;43.506;1.500;2023-10-09T12:23:22;99569.88;;;30.03;30.72
81897;BME280;71360;43.506;1.500;2023-10-09T12:25:51;99565.09;;;30.11;30.28
81897;BME280;71360;43.506;1.500;2023-10-09T12:28:22;99571.91;;;30.16;30.05
81897;BME280;71360;43.506;1.500;2023-10-09T12:30:49;99570.28;;;30.21;30.33
81897;BME280;71360;43.506;1.500;2023-10-09T12:33:18;99553.78;;;30.28;29.83
81897;BME280;71360;43.506;1.500;2023-10-09T12:35:45;99556.00;;;30.39;29.95
81897;BME280;71360;43.506;1.500;2023-10-09T12:38:13;99549.34;;;30.48;29.43
81897;BME280;71360;43.506;1.500;2023-10-09T12:40:44;99550.44;;;30.54;29.70
81897;BME280;71360;43.506;1.500;2023-10-09T12:43:17;99547.31;;;30.64;29.34
81897;BME280;71360;43.506;1.500;2023-10-09T12:45:45;99552.50;;;30.74;29.35
81897;BME280;71360;43.506;1.500;2023-10-09T12:48:11;99549.38;;;30.84;28.80
81897;BME280;71360;43.506;1.500;2023-10-09T12:50:38;99542.81;;;30.85;28.18
81897;BME280;71360;43.506;1.500;2023-10-09T12:53:10;99542.81;;;30.85;28.48
81897;BME280;71360;43.506;1.500;2023-10-09T12:55:40;99546.19;;;30.87;28.14
81897;BME280;71360;43.506;1.500;2023-10-09T12:58:08;99536.03;;;30.94;27.96
81897;BME280;71360;43.506;1.500;2023-10-09T13:00:37;99538.50;;;31.04;27.49
81897;BME280;71360;43.506;1.500;2023-10-09T13:03:23;99529.16;;;31.11;27.74
81897;BME280;71360;43.506;1.500;2023-10-09T13:05:53;99528.63;;;31.23;27.41
81897;BME280;71360;43.506;1.500;2023-10-09T13:08:23;99531.19;;;31.31;26.66
81897;BME280;71360;43.506;1.500;2023-10-09T13:10:52;99521.22;;;31.37;26.78
81897;BME280;71360;43.506;1.500;2023-10-09T13:13:26;99523.16;;;31.43;26.21
81897;BME280;71360;43.506;1.500;2023-10-09T13:16:01;99522.75;;;31.46;26.81
81897;BME280;71360;43.506;1.500;2023-10-09T13:18:31;99512.78;;;31.52;26.53
81897;BME280;71360;43.506;1.500;2023-10-09T13:20:57;99514.34;;;31.61;26.57
81897;BME280;71360;43.506;1.500;2023-10-09T13:23:22;99519.03;;;31.74;26.43
81897;BME280;71360;43.506;1.500;2023-10-09T13:25:49;99507.16;;;31.87;26.17
81897;BME280;71360;43.506;1.500;2023-10-09T13:28:14;99506.31;;;31.99;25.91
81897;BME280;71360;43.506;1.500;2023-10-09T13:30:46;99501.00;;;32.11;25.46
81897;BME280;71360;43.506;1.500;2023-10-09T13:33:15;99502.94;;;32.18;25.04
81897;BME280;71360;43.506;1.500;2023-10-09T13:35:47;99497.63;;;32.23;25.33
81897;BME280;71360;43.506;1.500;2023-10-09T13:38:16;99497.41;;;32.31;25.21
81897;BME280;71360;43.506;1.500;2023-10-09T13:40:42;99495.09;;;32.41;24.98
81897;BME280;71360;43.506;1.500;2023-10-09T13:43:07;99493.59;;;32.52;25.15
81897;BME280;71360;43.506;1.500;2023-10-09T13:45:41;99489.09;;;32.64;24.73
81897;BME280;71360;43.506;1.500;2023-10-09T13:48:14;99493.38;;;32.74;24.53